sensor_id;sensor_type;location;lat;lon;timestamp;temperature;humidity
39847;DHT22;25517;52.422;10.782;2023-07-02T00:02:23;15.70;99.90
39847;DHT22;25517;52.422;10.782;2023-07-02T00:04:49;15.60;99.90
39847;DHT22;25517;52.422;10.782;2023-07-02T00:07:14;15.60;99.90
39847;DHT22;25517;52.422;10.782;2023-07-02T00:09:40;15.60;99.90
39847;DHT22;25517;52.422;10.782;2023-07-02T00:12:06;15.60;99.90
39847;DHT22;25517;52.422;10.782;2023-07-02T00:14:32;15.60;99.90
39847;DHT22;25517;52.422;10.782;2023-07-02T00:16:57;15.60;99.90
39847;DHT22;25517;52.422;10.782;2023-07-02T00:19:23;15.60;99.90
39847;DHT22;25517;52.422;10.782;2023-07-02T00:21:48;15.60;99.90
39847;DHT22;25517;52.422;10.782;2023-07-02T00:24:14;15.50;99.90
39847;DHT22;25517;52.422;10.782;2023-07-02T00:26:42;15.60;99.90
39847;DHT22;25517;52.422;10.782;2023-07-02T00:29:08;15.50;99.90
39847;DHT22;25517;52.422;10.782;2023-07-02T00:31:34;15.50;99.90
39847;DHT22;25517;52.422;10.782;2023-07-02T00:34:01;15.60;99.90
39847;DHT22;25517;52.422;10.782;2023-07-02T00:36:27;15.60;99.90
39847;DHT22;25517;52.422;10.782;2023-07-02T00:38:53;15.50;99.90
39847;DHT22;25517;52.422;10.782;2023-07-02T00:41:18;15.60;99.90
39847;DHT22;25517;52.422;10.782;2023-07-02T00:43:44;15.60;99.90
39847;DHT22;25517;52.422;10.782;2023-07-02T00:46:17;15.60;99.90
39847;DHT22;25517;52.422;10.782;2023-07-02T00:48:50;15.60;99.90
39847;DHT22;25517;52.422;10.782;2023-07-02T00:51:19;15.60;99.90
39847;DHT22;25517;52.422;10.782;2023-07-02T00:53:46;15.60;99.90
39847;DHT22;25517;52.422;10.782;2023-07-02T00:56:12;15.60;99.90
39847;DHT22;25517;52.422;10.782;2023-07-02T00:58:39;15.60;99.90
39847;DHT22;25517;52.422;10.782;2023-07-02T01:01:05;15.60;99.90
39847;DHT22;25517;52.422;10.782;2023-07-02T01:03:31;15.60;99.90
39847;DHT22;25517;52.422;10.782;2023-07-02T01:05:59;15.60;99.90
39847;DHT22;25517;52.422;10.782;2023-07-02T01:08:24;15.60;99.90
39847;DHT22;25517;52.422;10.782;2023-07-02T01:10:50;15.60;99.90
39847;DHT22;25517;52.422;10.782;2023-07-02T01:13:19;15.60;99.90
39847;DHT22;25517;52.422;10.782;2023-07-02T01:15:47;15.60;99.90
39847;DHT22;25517;52.422;10.782;2023-07-02T01:18:14;15.60;99.90
39847;DHT22;25517;52.422;10.782;2023-07-02T01:20:41;15.60;99.90
39847;DHT22;25517;52.422;10.782;2023-07-02T01:23:07;15.60;99.90
39847;DHT22;25517;52.422;10.782;2023-07-02T01:25:34;15.60;99.90
39847;DHT22;25517;52.422;10.782;2023-07-02T01:28:02;15.60;99.90
39847;DHT22;25517;52.422;10.782;2023-07-02T01:30:28;15.60;99.90
39847;DHT22;25517;52.422;10.782;2023-07-02T01:32:53;15.60;99.90
39847;DHT22;25517;52.422;10.782;2023-07-02T01:35:19;15.60;99.90
39847;DHT22;25517;52.422;10.782;2023-07-02T01:37:44;15.60;99.90
39847;DHT22;25517;52.422;10.782;2023-07-02T01:40:10;15.60;99.90
39847;DHT22;25517;52.422;10.782;2023-07-02T01:42:36;15.50;99.90
39847;DHT22;25517;52.422;10.782;2023-07-02T01:45:02;15.50;99.90
39847;DHT22;25517;52.422;10.782;2023-07-02T01:47:27;15.50;99.90
39847;DHT22;25517;52.422;10.782;2023-07-02T01:49:53;15.50;99.90
39847;DHT22;25517;52.422;10.782;2023-07-02T01:52:19;15.50;99.90
39847;DHT22;25517;52.422;10.782;2023-07-02T01:54:45;15.50;99.90
39847;DHT22;25517;52.422;10.782;2023-07-02T01:57:11;15.40;99.90
39847;DHT22;25517;52.422;10.782;2023-07-02T01:59:36;15.40;99.90
39847;DHT22;25517;52.422;10.782;2023-07-02T02:02:02;15.40;99.90
39847;DHT22;25517;52.422;10.782;2023-07-02T02:04:28;15.30;99.90
39847;DHT22;25517;52.422;10.782;2023-07-02T02:06:53;15.30;99.90
39847;DHT22;25517;52.422;10.782;2023-07-02T02:09:19;15.30;99.90
39847;DHT22;25517;52.422;10.782;2023-07-02T02:11:50;15.30;99.90
39847;DHT22;25517;52.422;10.782;2023-07-02T02:14:17;15.30;99.90
39847;DHT22;25517;52.422;10.782;2023-07-02T02:16:44;15.20;99.90
39847;DHT22;25517;52.422;10.782;2023-07-02T02:19:12;15.20;99.90
39847;DHT22;25517;52.422;10.782;2023-07-02T02:21:40;15.20;99.90
39847;DHT22;25517;52.422;10.782;2023-07-02T02:24:06;15.20;99.90
39847;DHT22;25517;52.422;10.782;2023-07-02T02:26:33;15.20;99.90
39847;DHT22;25517;52.422;10.782;2023-07-02T02:28:58;15.20;99.90
39847;DHT22;25517;52.422;10.782;2023-07-02T02:31:24;15.10;99.90
39847;DHT22;25517;52.422;10.782;2023-07-02T02:33:49;15.20;99.90
39847;DHT22;25517;52.422;10.782;2023-07-02T02:36:15;15.10;99.90
39847;DHT22;25517;52.422;10.782;2023-07-02T02:38:42;15.10;99.90
39847;DHT22;25517;52.422;10.782;2023-07-02T02:41:08;15.10;99.90
39847;DHT22;25517;52.422;10.782;2023-07-02T02:43:34;15.10;99.90
39847;DHT22;25517;52.422;10.782;2023-07-02T02:45:59;15.10;99.90
39847;DHT22;25517;52.422;10.782;2023-07-02T02:48:25;15.00;99.90
39847;DHT22;25517;52.422;10.782;2023-07-02T02:50:51;15.00;99.90
39847;DHT22;25517;52.422;10.782;2023-07-02T02:53:16;15.00;99.90
39847;DHT22;25517;52.422;10.782;2023-07-02T02:55:42;15.00;99.90
39847;DHT22;25517;52.422;10.782;2023-07-02T02:58:08;14.90;99.90
39847;DHT22;25517;52.422;10.782;2023-07-02T03:00:33;14.90;99.90
39847;DHT22;25517;52.422;10.782;2023-07-02T03:02:59;14.90;99.90
39847;DHT22;25517;52.422;10.782;2023-07-02T03:05:24;14.90;99.90
39847;DHT22;25517;52.422;10.782;2023-07-02T03:07:51;14.90;99.90
39847;DHT22;25517;52.422;10.782;2023-07-02T03:10:17;14.90;99.90
39847;DHT22;25517;52.422;10.782;2023-07-02T03:12:42;14.90;99.90
39847;DHT22;25517;52.422;10.782;2023-07-02T03:15:08;15.00;99.90
39847;DHT22;25517;52.422;10.782;2023-07-02T03:17:34;15.00;99.90
39847;DHT22;25517;52.422;10.782;2023-07-02T03:20:00;15.00;99.90
39847;DHT22;25517;52.422;10.782;2023-07-02T03:22:25;15.00;99.90
39847;DHT22;25517;52.422;10.782;2023-07-02T03:24:51;15.00;99.90
39847;DHT22;25517;52.422;10.782;2023-07-02T03:27:16;15.00;99.90
39847;DHT22;25517;52.422;10.782;2023-07-02T03:29:42;15.00;99.90
39847;DHT22;25517;52.422;10.782;2023-07-02T03:32:08;15.10;99.90
39847;DHT22;25517;52.422;10.782;2023-07-02T03:34:33;15.10;99.90
39847;DHT22;25517;52.422;10.782;2023-07-02T03:36:59;15.10;99.90
39847;DHT22;25517;52.422;10.782;2023-07-02T03:39:24;15.10;99.90
39847;DHT22;25517;52.422;10.782;2023-07-02T03:41:50;15.10;99.90
39847;DHT22;25517;52.422;10.782;2023-07-02T03:44:15;15.10;99.90
39847;DHT22;25517;52.422;10.782;2023-07-02T03:46:41;15.10;99.90
39847;DHT22;25517;52.422;10.782;2023-07-02T03:49:06;15.20;99.90
39847;DHT22;25517;52.422;10.782;2023-07-02T03:51:32;15.20;99.90
39847;DHT22;25517;52.422;10.782;2023-07-02T03:54:01;15.20;99.90
39847;DHT22;25517;52.422;10.782;2023-07-02T03:56:26;15.20;99.90
39847;DHT22;25517;52.422;10.782;2023-07-02T03:58:52;15.20;99.90
39847;DHT22;25517;52.422;10.782;2023-07-02T04:01:18;15.30;99.90
39847;DHT22;25517;52.422;10.782;2023-07-02T04:03:52;15.30;99.90
39847;DHT22;25517;52.422;10.782;2023-07-02T04:06:18;15.30;99.90
39847;DHT22;25517;52.422;10.782;2023-07-02T04:08:44;15.30;99.90
39847;DHT22;25517;52.422;10.782;2023-07-02T04:11:10;15.40;99.90
39847;DHT22;25517;52.422;10.782;2023-07-02T04:13:36;15.30;99.90
39847;DHT22;25517;52.422;10.782;2023-07-02T04:16:02;15.30;99.90
39847;DHT22;25517;52.422;10.782;2023-07-02T04:18:27;15.40;99.90
39847;DHT22;25517;52.422;10.782;2023-07-02T04:20:55;15.40;99.90
39847;DHT22;25517;52.422;10.782;2023-07-02T04:23:20;15.40;99.90
39847;DHT22;25517;52.422;10.782;2023-07-02T04:25:46;15.50;99.90
39847;DHT22;25517;52.422;10.782;2023-07-02T04:28:11;15.50;99.90
39847;DHT22;25517;52.422;10.782;2023-07-02T04:30:37;15.60;99.90
39847;DHT22;25517;52.422;10.782;2023-07-02T04:33:02;15.60;99.90
39847;DHT22;25517;52.422;10.782;2023-07-02T04:35:28;15.70;99.90
39847;DHT22;25517;52.422;10.782;2023-07-02T04:37:53;15.70;99.90
39847;DHT22;25517;52.422;10.782;2023-07-02T04:40:19;15.70;99.90
39847;DHT22;25517;52.422;10.782;2023-07-02T04:42:45;15.70;99.90
39847;DHT22;25517;52.422;10.782;2023-07-02T04:45:12;15.80;99.90
39847;DHT22;25517;52.422;10.782;2023-07-02T04:47:38;15.80;99.90
39847;DHT22;25517;52.422;10.782;2023-07-02T04:50:04;15.70;99.90
39847;DHT22;25517;52.422;10.782;2023-07-02T04:52:30;15.80;99.90
39847;DHT22;25517;52.422;10.782;2023-07-02T04:54:56;15.80;99.90
39847;DHT22;25517;52.422;10.782;2023-07-02T04:57:22;15.70;99.90
39847;DHT22;25517;52.422;10.782;2023-07-02T04:59:48;15.70;99.90
39847;DHT22;25517;52.422;10.782;2023-07-02T05:02:13;15.70;99.90
39847;DHT22;25517;52.422;10.782;2023-07-02T05:04:39;15.70;99.90
39847;DHT22;25517;52.422;10.782;2023-07-02T05:07:04;15.60;99.90
39847;DHT22;25517;52.422;10.782;2023-07-02T05:09:30;15.60;99.90
39847;DHT22;25517;52.422;10.782;2023-07-02T05:11:56;15.60;99.90
39847;DHT22;25517;52.422;10.782;2023-07-02T05:14:21;15.60;99.90
39847;DHT22;25517;52.422;10.782;2023-07-02T05:16:48;15.60;99.90
39847;DHT22;25517;52.422;10.782;2023-07-02T05:19:14;15.60;99.90
39847;DHT22;25517;52.422;10.782;2023-07-02T05:21:39;15.60;99.90
39847;DHT22;25517;52.422;10.782;2023-07-02T05:24:05;15.60;99.90
39847;DHT22;25517;52.422;10.782;2023-07-02T05:26:31;15.70;99.90
39847;DHT22;25517;52.422;10.782;2023-07-02T05:28:56;15.70;99.90
39847;DHT22;25517;52.422;10.782;2023-07-02T05:31:22;15.70;99.90
39847;DHT22;25517;52.422;10.782;2023-07-02T05:33:47;15.70;99.90
39847;DHT22;25517;52.422;10.782;2023-07-02T05:36:13;15.70;99.90
39847;DHT22;25517;52.422;10.782;2023-07-02T05:38:39;15.70;99.90
39847;DHT22;25517;52.422;10.782;2023-07-02T05:41:04;15.70;99.90
39847;DHT22;25517;52.422;10.782;2023-07-02T05:43:29;15.80;99.90
39847;DHT22;25517;52.422;10.782;2023-07-02T05:45:58;15.80;99.90
39847;DHT22;25517;52.422;10.782;2023-07-02T05:48:25;15.80;99.90
39847;DHT22;25517;52.422;10.782;2023-07-02T05:50:51;15.80;99.90
39847;DHT22;25517;52.422;10.782;2023-07-02T05:53:16;15.80;99.90
39847;DHT22;25517;52.422;10.782;2023-07-02T05:55:42;15.80;99.90
39847;DHT22;25517;52.422;10.782;2023-07-02T05:58:08;15.80;99.90
39847;DHT22;25517;52.422;10.782;2023-07-02T06:00:34;15.80;99.90
39847;DHT22;25517;52.422;10.782;2023-07-02T06:02:59;15.80;99.90
39847;DHT22;25517;52.422;10.782;2023-07-02T06:05:25;15.80;99.90
39847;DHT22;25517;52.422;10.782;2023-07-02T06:07:50;15.90;99.90
39847;DHT22;25517;52.422;10.782;2023-07-02T06:10:16;15.90;99.90
39847;DHT22;25517;52.422;10.782;2023-07-02T06:12:42;15.90;99.90
39847;DHT22;25517;52.422;10.782;2023-07-02T06:15:09;15.90;99.90
39847;DHT22;25517;52.422;10.782;2023-07-02T06:17:34;16.00;99.90
39847;DHT22;25517;52.422;10.782;2023-07-02T06:20:01;16.00;99.90
39847;DHT22;25517;52.422;10.782;2023-07-02T06:22:26;16.00;99.90
39847;DHT22;25517;52.422;10.782;2023-07-02T06:24:52;16.00;99.90
39847;DHT22;25517;52.422;10.782;2023-07-02T06:27:17;16.00;99.90
39847;DHT22;25517;52.422;10.782;2023-07-02T06:29:43;16.10;99.90
39847;DHT22;25517;52.422;10.782;2023-07-02T06:32:08;16.20;99.90
39847;DHT22;25517;52.422;10.782;2023-07-02T06:34:34;16.30;99.90
39847;DHT22;25517;52.422;10.782;2023-07-02T06:37:00;16.40;99.90
39847;DHT22;25517;52.422;10.782;2023-07-02T06:39:26;16.40;99.90
39847;DHT22;25517;52.422;10.782;2023-07-02T06:41:51;16.50;99.90
39847;DHT22;25517;52.422;10.782;2023-07-02T06:44:17;16.60;99.90
39847;DHT22;25517;52.422;10.782;2023-07-02T06:46:45;16.70;99.90
39847;DHT22;25517;52.422;10.782;2023-07-02T06:49:11;16.70;99.90
39847;DHT22;25517;52.422;10.782;2023-07-02T06:51:36;16.90;99.90
39847;DHT22;25517;52.422;10.782;2023-07-02T06:54:02;16.90;99.90
39847;DHT22;25517;52.422;10.782;2023-07-02T06:56:28;16.90;99.90
39847;DHT22;25517;52.422;10.782;2023-07-02T06:58:53;17.00;99.90
39847;DHT22;25517;52.422;10.782;2023-07-02T07:01:19;17.00;99.90
39847;DHT22;25517;52.422;10.782;2023-07-02T07:03:45;17.00;99.90
39847;DHT22;25517;52.422;10.782;2023-07-02T07:06:11;17.00;99.90
39847;DHT22;25517;52.422;10.782;2023-07-02T07:08:39;17.10;99.90
39847;DHT22;25517;52.422;10.782;2023-07-02T07:11:05;17.10;99.90
39847;DHT22;25517;52.422;10.782;2023-07-02T07:13:30;17.10;99.90
39847;DHT22;25517;52.422;10.782;2023-07-02T07:15:56;17.20;99.90
39847;DHT22;25517;52.422;10.782;2023-07-02T07:18:21;17.20;99.90
39847;DHT22;25517;52.422;10.782;2023-07-02T07:20:47;17.20;99.90
39847;DHT22;25517;52.422;10.782;2023-07-02T07:23:12;17.20;99.90
39847;DHT22;25517;52.422;10.782;2023-07-02T07:25:38;17.20;99.90
39847;DHT22;25517;52.422;10.782;2023-07-02T07:28:04;17.30;99.90
39847;DHT22;25517;52.422;10.782;2023-07-02T07:30:29;17.40;99.90
39847;DHT22;25517;52.422;10.782;2023-07-02T07:32:56;17.50;99.90
39847;DHT22;25517;52.422;10.782;2023-07-02T07:35:22;17.60;99.90
39847;DHT22;25517;52.422;10.782;2023-07-02T07:37:48;17.70;99.90
39847;DHT22;25517;52.422;10.782;2023-07-02T07:40:14;17.60;99.90
39847;DHT22;25517;52.422;10.782;2023-07-02T07:42:40;17.70;99.90
39847;DHT22;25517;52.422;10.782;2023-07-02T07:45:07;17.90;99.90
39847;DHT22;25517;52.422;10.782;2023-07-02T07:47:32;18.00;99.90
39847;DHT22;25517;52.422;10.782;2023-07-02T07:49:58;18.10;99.90
39847;DHT22;25517;52.422;10.782;2023-07-02T07:52:23;18.30;99.90
39847;DHT22;25517;52.422;10.782;2023-07-02T07:54:49;18.40;99.90
39847;DHT22;25517;52.422;10.782;2023-07-02T07:57:14;18.50;99.90
39847;DHT22;25517;52.422;10.782;2023-07-02T07:59:40;18.50;99.90
39847;DHT22;25517;52.422;10.782;2023-07-02T08:02:06;18.60;99.90
39847;DHT22;25517;52.422;10.782;2023-07-02T08:04:31;18.70;99.90
39847;DHT22;25517;52.422;10.782;2023-07-02T08:06:57;19.00;99.90
39847;DHT22;25517;52.422;10.782;2023-07-02T08:09:23;19.10;99.90
39847;DHT22;25517;52.422;10.782;2023-07-02T08:11:49;19.30;99.90
39847;DHT22;25517;52.422;10.782;2023-07-02T08:14:16;19.50;99.90
39847;DHT22;25517;52.422;10.782;2023-07-02T08:16:43;20.20;99.90
39847;DHT22;25517;52.422;10.782;2023-07-02T08:19:09;20.90;99.90
39847;DHT22;25517;52.422;10.782;2023-07-02T08:21:35;21.80;97.20
39847;DHT22;25517;52.422;10.782;2023-07-02T08:24:00;22.30;93.50
39847;DHT22;25517;52.422;10.782;2023-07-02T08:26:26;22.80;92.10
39847;DHT22;25517;52.422;10.782;2023-07-02T08:28:52;23.30;91.00
39847;DHT22;25517;52.422;10.782;2023-07-02T08:31:18;23.80;87.90
39847;DHT22;25517;52.422;10.782;2023-07-02T08:33:43;24.20;85.90
39847;DHT22;25517;52.422;10.782;2023-07-02T08:36:09;24.50;84.70
39847;DHT22;25517;52.422;10.782;2023-07-02T08:38:34;24.40;84.40
39847;DHT22;25517;52.422;10.782;2023-07-02T08:41:00;23.70;85.40
39847;DHT22;25517;52.422;10.782;2023-07-02T08:43:26;23.30;87.00
39847;DHT22;25517;52.422;10.782;2023-07-02T08:45:53;23.00;88.40
39847;DHT22;25517;52.422;10.782;2023-07-02T08:48:18;22.90;88.90
39847;DHT22;25517;52.422;10.782;2023-07-02T08:50:48;23.20;88.40
39847;DHT22;25517;52.422;10.782;2023-07-02T08:53:14;24.10;85.80
39847;DHT22;25517;52.422;10.782;2023-07-02T08:55:40;24.50;84.60
39847;DHT22;25517;52.422;10.782;2023-07-02T08:58:06;25.10;79.90
39847;DHT22;25517;52.422;10.782;2023-07-02T09:00:31;25.00;77.80
39847;DHT22;25517;52.422;10.782;2023-07-02T09:03:14;24.30;77.80
39847;DHT22;25517;52.422;10.782;2023-07-02T09:05:52;23.80;80.30
39847;DHT22;25517;52.422;10.782;2023-07-02T09:08:25;23.50;79.80
39847;DHT22;25517;52.422;10.782;2023-07-02T09:10:50;24.40;79.00
39847;DHT22;25517;52.422;10.782;2023-07-02T09:13:16;24.90;77.20
39847;DHT22;25517;52.422;10.782;2023-07-02T09:15:42;24.60;75.30
39847;DHT22;25517;52.422;10.782;2023-07-02T09:18:18;25.10;73.20
39847;DHT22;25517;52.422;10.782;2023-07-02T09:20:44;25.40;73.00
39847;DHT22;25517;52.422;10.782;2023-07-02T09:23:09;26.20;69.80
39847;DHT22;25517;52.422;10.782;2023-07-02T09:25:40;26.10;70.90
39847;DHT22;25517;52.422;10.782;2023-07-02T09:28:19;26.40;69.80
39847;DHT22;25517;52.422;10.782;2023-07-02T09:30:58;26.60;70.00
39847;DHT22;25517;52.422;10.782;2023-07-02T09:33:25;27.30;70.10
39847;DHT22;25517;52.422;10.782;2023-07-02T09:35:51;27.00;68.10
39847;DHT22;25517;52.422;10.782;2023-07-02T09:38:20;27.50;66.10
39847;DHT22;25517;52.422;10.782;2023-07-02T09:40:50;27.20;66.70
39847;DHT22;25517;52.422;10.782;2023-07-02T09:43:17;27.40;65.30
39847;DHT22;25517;52.422;10.782;2023-07-02T09:45:49;27.90;63.70
39847;DHT22;25517;52.422;10.782;2023-07-02T09:48:16;27.90;62.50
39847;DHT22;25517;52.422;10.782;2023-07-02T09:50:44;28.10;63.30
39847;DHT22;25517;52.422;10.782;2023-07-02T09:53:10;28.40;60.90
39847;DHT22;25517;52.422;10.782;2023-07-02T09:55:37;29.00;64.40
39847;DHT22;25517;52.422;10.782;2023-07-02T09:58:03;28.10;62.40
39847;DHT22;25517;52.422;10.782;2023-07-02T10:00:29;27.50;63.50
39847;DHT22;25517;52.422;10.782;2023-07-02T10:02:55;26.70;63.80
39847;DHT22;25517;52.422;10.782;2023-07-02T10:05:30;25.70;64.70
39847;DHT22;25517;52.422;10.782;2023-07-02T10:07:57;24.90;66.00
39847;DHT22;25517;52.422;10.782;2023-07-02T10:10:29;24.20;68.10
39847;DHT22;25517;52.422;10.782;2023-07-02T10:12:55;24.00;67.60
39847;DHT22;25517;52.422;10.782;2023-07-02T10:15:28;24.80;66.60
39847;DHT22;25517;52.422;10.782;2023-07-02T10:18:00;25.00;66.80
39847;DHT22;25517;52.422;10.782;2023-07-02T10:20:39;24.50;67.00
39847;DHT22;25517;52.422;10.782;2023-07-02T10:23:07;24.10;68.60
39847;DHT22;25517;52.422;10.782;2023-07-02T10:25:35;23.90;70.40
39847;DHT22;25517;52.422;10.782;2023-07-02T10:28:18;23.20;70.90
39847;DHT22;25517;52.422;10.782;2023-07-02T10:30:44;23.10;69.80
39847;DHT22;25517;52.422;10.782;2023-07-02T10:33:16;23.50;71.10
39847;DHT22;25517;52.422;10.782;2023-07-02T10:35:43;25.00;67.40
39847;DHT22;25517;52.422;10.782;2023-07-02T10:38:21;24.70;67.70
39847;DHT22;25517;52.422;10.782;2023-07-02T10:40:53;23.90;68.10
39847;DHT22;25517;52.422;10.782;2023-07-02T10:43:24;23.10;69.60
39847;DHT22;25517;52.422;10.782;2023-07-02T10:45:50;22.40;71.90
39847;DHT22;25517;52.422;10.782;2023-07-02T10:48:16;21.90;73.70
39847;DHT22;25517;52.422;10.782;2023-07-02T10:50:41;21.80;75.30
39847;DHT22;25517;52.422;10.782;2023-07-02T10:53:18;22.80;74.40
39847;DHT22;25517;52.422;10.782;2023-07-02T10:55:44;23.90;72.10
39847;DHT22;25517;52.422;10.782;2023-07-02T10:58:11;25.30;68.00
39847;DHT22;25517;52.422;10.782;2023-07-02T11:00:50;26.20;64.50
39847;DHT22;25517;52.422;10.782;2023-07-02T11:03:26;26.20;63.30
39847;DHT22;25517;52.422;10.782;2023-07-02T11:05:52;26.80;61.80
39847;DHT22;25517;52.422;10.782;2023-07-02T11:08:19;26.00;64.60
39847;DHT22;25517;52.422;10.782;2023-07-02T11:10:46;25.10;65.10
39847;DHT22;25517;52.422;10.782;2023-07-02T11:13:17;24.40;68.60
39847;DHT22;25517;52.422;10.782;2023-07-02T11:15:43;23.80;66.80
39847;DHT22;25517;52.422;10.782;2023-07-02T11:18:12;23.10;66.30
39847;DHT22;25517;52.422;10.782;2023-07-02T11:20:39;22.80;67.20
39847;DHT22;25517;52.422;10.782;2023-07-02T11:23:16;22.80;68.40
39847;DHT22;25517;52.422;10.782;2023-07-02T11:25:41;22.90;68.50
39847;DHT22;25517;52.422;10.782;2023-07-02T11:28:07;24.50;67.20
39847;DHT22;25517;52.422;10.782;2023-07-02T11:30:33;25.00;65.20
39847;DHT22;25517;52.422;10.782;2023-07-02T11:33:00;25.90;65.90
39847;DHT22;25517;52.422;10.782;2023-07-02T11:35:35;26.30;63.60
39847;DHT22;25517;52.422;10.782;2023-07-02T11:38:01;25.70;62.00
39847;DHT22;25517;52.422;10.782;2023-07-02T11:40:26;25.80;61.00
39847;DHT22;25517;52.422;10.782;2023-07-02T11:42:52;25.30;62.00
39847;DHT22;25517;52.422;10.782;2023-07-02T11:45:18;24.80;63.30
39847;DHT22;25517;52.422;10.782;2023-07-02T11:47:43;24.40;62.60
39847;DHT22;25517;52.422;10.782;2023-07-02T11:50:09;25.60;63.00
39847;DHT22;25517;52.422;10.782;2023-07-02T11:52:35;26.60;61.30
39847;DHT22;25517;52.422;10.782;2023-07-02T11:55:00;27.30;61.00
39847;DHT22;25517;52.422;10.782;2023-07-02T11:57:26;28.20;61.00
39847;DHT22;25517;52.422;10.782;2023-07-02T11:59:52;28.10;59.60
39847;DHT22;25517;52.422;10.782;2023-07-02T12:02:18;28.00;58.00
39847;DHT22;25517;52.422;10.782;2023-07-02T12:04:44;27.30;58.60
39847;DHT22;25517;52.422;10.782;2023-07-02T12:07:09;27.00;59.90
39847;DHT22;25517;52.422;10.782;2023-07-02T12:09:35;26.60;60.40
39847;DHT22;25517;52.422;10.782;2023-07-02T12:12:01;25.90;61.90
39847;DHT22;25517;52.422;10.782;2023-07-02T12:14:27;25.50;61.50
39847;DHT22;25517;52.422;10.782;2023-07-02T12:16:52;25.50;63.10
39847;DHT22;25517;52.422;10.782;2023-07-02T12:19:18;25.50;63.20
39847;DHT22;25517;52.422;10.782;2023-07-02T12:21:43;25.20;63.10
39847;DHT22;25517;52.422;10.782;2023-07-02T12:24:09;24.70;63.10
39847;DHT22;25517;52.422;10.782;2023-07-02T12:26:36;24.50;62.80
39847;DHT22;25517;52.422;10.782;2023-07-02T12:29:01;24.40;66.50
39847;DHT22;25517;52.422;10.782;2023-07-02T12:31:27;24.60;64.10
39847;DHT22;25517;52.422;10.782;2023-07-02T12:33:52;24.30;64.80
39847;DHT22;25517;52.422;10.782;2023-07-02T12:36:18;24.30;64.60
39847;DHT22;25517;52.422;10.782;2023-07-02T12:38:43;24.50;63.90
39847;DHT22;25517;52.422;10.782;2023-07-02T12:41:09;24.70;64.30
39847;DHT22;25517;52.422;10.782;2023-07-02T12:43:34;24.80;64.00
39847;DHT22;25517;52.422;10.782;2023-07-02T12:46:00;24.40;65.40
39847;DHT22;25517;52.422;10.782;2023-07-02T12:48:25;24.00;65.30
39847;DHT22;25517;52.422;10.782;2023-07-02T12:50:58;23.60;65.50
39847;DHT22;25517;52.422;10.782;2023-07-02T12:53:24;23.60;68.10
39847;DHT22;25517;52.422;10.782;2023-07-02T12:55:50;24.20;67.70
39847;DHT22;25517;52.422;10.782;2023-07-02T12:58:16;24.10;65.60
39847;DHT22;25517;52.422;10.782;2023-07-02T13:00:41;24.00;66.20
39847;DHT22;25517;52.422;10.782;2023-07-02T13:03:10;23.70;66.80
39847;DHT22;25517;52.422;10.782;2023-07-02T13:05:36;23.30;65.40
39847;DHT22;25517;52.422;10.782;2023-07-02T13:08:02;22.90;66.30
39847;DHT22;25517;52.422;10.782;2023-07-02T13:10:29;22.60;68.60
39847;DHT22;25517;52.422;10.782;2023-07-02T13:12:55;22.90;67.80
39847;DHT22;25517;52.422;10.782;2023-07-02T13:15:20;23.50;67.40
39847;DHT22;25517;52.422;10.782;2023-07-02T13:17:46;23.60;67.40
39847;DHT22;25517;52.422;10.782;2023-07-02T13:20:11;24.00;67.30
39847;DHT22;25517;52.422;10.782;2023-07-02T13:22:37;24.30;67.30
39847;DHT22;25517;52.422;10.782;2023-07-02T13:25:03;24.30;65.60
39847;DHT22;25517;52.422;10.782;2023-07-02T13:27:28;24.50;65.30
39847;DHT22;25517;52.422;10.782;2023-07-02T13:29:54;24.60;64.70
39847;DHT22;25517;52.422;10.782;2023-07-02T13:32:19;24.70;65.90
39847;DHT22;25517;52.422;10.782;2023-07-02T13:34:45;24.90;63.40
39847;DHT22;25517;52.422;10.782;2023-07-02T13:37:10;24.20;65.40
39847;DHT22;25517;52.422;10.782;2023-07-02T13:39:36;24.60;65.10
39847;DHT22;25517;52.422;10.782;2023-07-02T13:42:02;24.50;66.00
39847;DHT22;25517;52.422;10.782;2023-07-02T13:44:27;24.50;64.70
39847;DHT22;25517;52.422;10.782;2023-07-02T13:46:53;24.30;65.40
39847;DHT22;25517;52.422;10.782;2023-07-02T13:49:19;24.20;66.50
39847;DHT22;25517;52.422;10.782;2023-07-02T13:51:46;23.90;66.60
39847;DHT22;25517;52.422;10.782;2023-07-02T13:54:12;23.40;64.00
39847;DHT22;25517;52.422;10.782;2023-07-02T13:56:39;23.00;66.70
39847;DHT22;25517;52.422;10.782;2023-07-02T13:59:05;22.60;66.60
39847;DHT22;25517;52.422;10.782;2023-07-02T14:01:31;22.50;66.20
39847;DHT22;25517;52.422;10.782;2023-07-02T14:03:58;22.50;65.20
39847;DHT22;25517;52.422;10.782;2023-07-02T14:06:23;22.40;65.90
39847;DHT22;25517;52.422;10.782;2023-07-02T14:08:49;22.40;65.20
39847;DHT22;25517;52.422;10.782;2023-07-02T14:11:15;22.50;66.50
39847;DHT22;25517;52.422;10.782;2023-07-02T14:13:40;22.70;66.60
39847;DHT22;25517;52.422;10.782;2023-07-02T14:16:06;23.10;65.60
39847;DHT22;25517;52.422;10.782;2023-07-02T14:18:31;23.30;66.60
39847;DHT22;25517;52.422;10.782;2023-07-02T14:20:57;23.20;66.30
39847;DHT22;25517;52.422;10.782;2023-07-02T14:23:22;23.00;66.10
39847;DHT22;25517;52.422;10.782;2023-07-02T14:25:48;22.90;66.30
39847;DHT22;25517;52.422;10.782;2023-07-02T14:28:13;23.00;68.40
39847;DHT22;25517;52.422;10.782;2023-07-02T14:30:39;23.40;66.50
39847;DHT22;25517;52.422;10.782;2023-07-02T14:33:06;23.20;65.40
39847;DHT22;25517;52.422;10.782;2023-07-02T14:35:31;23.00;65.70
39847;DHT22;25517;52.422;10.782;2023-07-02T14:37:57;22.90;66.60
39847;DHT22;25517;52.422;10.782;2023-07-02T14:40:23;22.80;66.30
39847;DHT22;25517;52.422;10.782;2023-07-02T14:42:49;22.70;67.00
39847;DHT22;25517;52.422;10.782;2023-07-02T14:45:15;22.90;67.70
39847;DHT22;25517;52.422;10.782;2023-07-02T14:47:41;23.30;68.00
39847;DHT22;25517;52.422;10.782;2023-07-02T14:50:06;23.40;68.00
39847;DHT22;25517;52.422;10.782;2023-07-02T14:52:32;23.40;68.70
39847;DHT22;25517;52.422;10.782;2023-07-02T14:54:57;23.40;67.40
39847;DHT22;25517;52.422;10.782;2023-07-02T14:57:26;23.50;68.10
39847;DHT22;25517;52.422;10.782;2023-07-02T14:59:51;23.40;67.90
39847;DHT22;25517;52.422;10.782;2023-07-02T15:02:18;23.10;66.30
39847;DHT22;25517;52.422;10.782;2023-07-02T15:04:44;22.90;66.80
39847;DHT22;25517;52.422;10.782;2023-07-02T15:07:10;22.80;67.00
39847;DHT22;25517;52.422;10.782;2023-07-02T15:09:36;22.70;68.60
39847;DHT22;25517;52.422;10.782;2023-07-02T15:12:01;22.80;68.30